Longford, Ireland
Current Conditions -  °F | °C
As of 1:00 PM on Saturday 25 Oct 2014 (Local Time) from EIME Reporting Station
Broken Clouds Broken Clouds  
Wind Chill: 57°   Ceiling: 5000
Heat Index: 57°   Visibility: 6mi
Dew Point: 46°   Wind: 23mph
Humidity: 67%   Direction: 230°SW
Pressure: 29.85"   Gusts: NA
Location:  53.09°N, 7.62°W
Report Text: EIME 251300Z 23020KT 9999 FEW026 BKN050 14/08 Q1011
Loading
Personal Weather Stations






























Interactive Weather Map
Tropical Storm Tracking
New forecast layout! Learn more

10-Day Weather Forecast

Advertisements
Track Severe Weather on mobile